sensor_id;sensor_type;location;lat;lon;timestamp;P1;durP1;ratioP1;P2;durP2;ratioP2
73585;SDS011;61865;50.232;18.614;2023-10-09T00:02:16;103.05;;;27.17;;
73585;SDS011;61865;50.232;18.614;2023-10-09T00:04:38;43.10;;;18.27;;
73585;SDS011;61865;50.232;18.614;2023-10-09T00:07:04;46.45;;;23.88;;
73585;SDS011;61865;50.232;18.614;2023-10-09T00:09:28;34.13;;;19.70;;
73585;SDS011;61865;50.232;18.614;2023-10-09T00:12:01;50.03;;;23.83;;
73585;SDS011;61865;50.232;18.614;2023-10-09T00:14:31;30.52;;;15.55;;
73585;SDS011;61865;50.232;18.614;2023-10-09T00:16:54;30.63;;;14.68;;
73585;SDS011;61865;50.232;18.614;2023-10-09T00:19:25;22.52;;;12.82;;
73585;SDS011;61865;50.232;18.614;2023-10-09T00:21:50;25.02;;;13.82;;
73585;SDS011;61865;50.232;18.614;2023-10-09T00:24:15;31.20;;;17.15;;
73585;SDS011;61865;50.232;18.614;2023-10-09T00:26:43;36.80;;;17.48;;
73585;SDS011;61865;50.232;18.614;2023-10-09T00:29:06;28.13;;;14.65;;
73585;SDS011;61865;50.232;18.614;2023-10-09T00:31:36;34.97;;;16.33;;
73585;SDS011;61865;50.232;18.614;2023-10-09T00:33:59;70.50;;;20.65;;
73585;SDS011;61865;50.232;18.614;2023-10-09T00:36:39;28.48;;;14.95;;
73585;SDS011;61865;50.232;18.614;2023-10-09T00:39:10;27.75;;;14.77;;
73585;SDS011;61865;50.232;18.614;2023-10-09T00:41:41;34.05;;;16.95;;
73585;SDS011;61865;50.232;18.614;2023-10-09T00:44:03;32.22;;;16.67;;
73585;SDS011;61865;50.232;18.614;2023-10-09T00:46:28;34.65;;;16.38;;
73585;SDS011;61865;50.232;18.614;2023-10-09T00:48:52;31.15;;;16.63;;
73585;SDS011;61865;50.232;18.614;2023-10-09T00:51:15;33.90;;;17.95;;
73585;SDS011;61865;50.232;18.614;2023-10-09T00:53:38;37.75;;;19.83;;
73585;SDS011;61865;50.232;18.614;2023-10-09T00:56:01;34.58;;;17.83;;
73585;SDS011;61865;50.232;18.614;2023-10-09T00:58:31;27.77;;;16.05;;
73585;SDS011;61865;50.232;18.614;2023-10-09T01:00:56;34.03;;;16.95;;
73585;SDS011;61865;50.232;18.614;2023-10-09T01:03:19;32.72;;;17.13;;
73585;SDS011;61865;50.232;18.614;2023-10-09T01:05:44;28.13;;;16.00;;
73585;SDS011;61865;50.232;18.614;2023-10-09T01:08:12;39.33;;;17.48;;
73585;SDS011;61865;50.232;18.614;2023-10-09T01:10:45;32.65;;;15.55;;
73585;SDS011;61865;50.232;18.614;2023-10-09T01:13:11;24.48;;;14.63;;
73585;SDS011;61865;50.232;18.614;2023-10-09T01:15:34;35.20;;;15.63;;
73585;SDS011;61865;50.232;18.614;2023-10-09T01:18:04;43.80;;;17.48;;
73585;SDS011;61865;50.232;18.614;2023-10-09T01:20:28;31.35;;;16.20;;
73585;SDS011;61865;50.232;18.614;2023-10-09T01:22:52;37.40;;;16.70;;
73585;SDS011;61865;50.232;18.614;2023-10-09T01:25:17;33.90;;;16.92;;
73585;SDS011;61865;50.232;18.614;2023-10-09T01:27:41;34.50;;;15.52;;
73585;SDS011;61865;50.232;18.614;2023-10-09T01:30:04;49.80;;;18.58;;
73585;SDS011;61865;50.232;18.614;2023-10-09T01:32:30;35.08;;;17.30;;
73585;SDS011;61865;50.232;18.614;2023-10-09T01:34:54;36.90;;;17.98;;
73585;SDS011;61865;50.232;18.614;2023-10-09T01:37:19;32.75;;;14.60;;
73585;SDS011;61865;50.232;18.614;2023-10-09T01:39:42;33.40;;;15.70;;
73585;SDS011;61865;50.232;18.614;2023-10-09T01:42:07;41.17;;;20.50;;
73585;SDS011;61865;50.232;18.614;2023-10-09T01:44:30;31.83;;;15.93;;
73585;SDS011;61865;50.232;18.614;2023-10-09T01:46:54;47.63;;;17.85;;
73585;SDS011;61865;50.232;18.614;2023-10-09T01:49:18;43.50;;;16.55;;
73585;SDS011;61865;50.232;18.614;2023-10-09T01:51:41;32.28;;;15.82;;
73585;SDS011;61865;50.232;18.614;2023-10-09T01:54:04;46.63;;;22.02;;
73585;SDS011;61865;50.232;18.614;2023-10-09T01:56:26;49.53;;;25.20;;
73585;SDS011;61865;50.232;18.614;2023-10-09T01:58:50;36.92;;;16.75;;
73585;SDS011;61865;50.232;18.614;2023-10-09T02:01:17;36.13;;;18.15;;
73585;SDS011;61865;50.232;18.614;2023-10-09T02:03:41;34.92;;;17.38;;
73585;SDS011;61865;50.232;18.614;2023-10-09T02:06:03;43.35;;;17.00;;
73585;SDS011;61865;50.232;18.614;2023-10-09T02:08:44;41.13;;;18.98;;
73585;SDS011;61865;50.232;18.614;2023-10-09T02:11:09;48.05;;;20.02;;
73585;SDS011;61865;50.232;18.614;2023-10-09T02:13:34;55.10;;;20.35;;
73585;SDS011;61865;50.232;18.614;2023-10-09T02:16:03;49.30;;;20.42;;
73585;SDS011;61865;50.232;18.614;2023-10-09T02:18:35;34.25;;;17.92;;
73585;SDS011;61865;50.232;18.614;2023-10-09T02:21:12;48.58;;;19.48;;
73585;SDS011;61865;50.232;18.614;2023-10-09T02:23:35;35.10;;;18.10;;
73585;SDS011;61865;50.232;18.614;2023-10-09T02:26:01;34.03;;;18.10;;
73585;SDS011;61865;50.232;18.614;2023-10-09T02:28:25;46.38;;;19.52;;
73585;SDS011;61865;50.232;18.614;2023-10-09T02:30:52;44.88;;;19.90;;
73585;SDS011;61865;50.232;18.614;2023-10-09T02:33:22;37.65;;;18.58;;
73585;SDS011;61865;50.232;18.614;2023-10-09T02:35:47;40.63;;;19.23;;
73585;SDS011;61865;50.232;18.614;2023-10-09T02:38:11;36.30;;;18.70;;
73585;SDS011;61865;50.232;18.614;2023-10-09T02:40:37;37.45;;;18.83;;
73585;SDS011;61865;50.232;18.614;2023-10-09T02:43:23;31.95;;;17.63;;
73585;SDS011;61865;50.232;18.614;2023-10-09T02:45:47;36.85;;;17.20;;
73585;SDS011;61865;50.232;18.614;2023-10-09T02:48:11;35.42;;;18.23;;
73585;SDS011;61865;50.232;18.614;2023-10-09T02:50:35;28.73;;;16.30;;
73585;SDS011;61865;50.232;18.614;2023-10-09T02:52:59;33.83;;;16.33;;
73585;SDS011;61865;50.232;18.614;2023-10-09T02:55:29;35.33;;;17.27;;
73585;SDS011;61865;50.232;18.614;2023-10-09T02:57:58;34.17;;;17.48;;
73585;SDS011;61865;50.232;18.614;2023-10-09T03:00:26;31.10;;;17.60;;
73585;SDS011;61865;50.232;18.614;2023-10-09T03:02:51;35.33;;;16.33;;
73585;SDS011;61865;50.232;18.614;2023-10-09T03:05:14;35.63;;;16.77;;
73585;SDS011;61865;50.232;18.614;2023-10-09T03:07:37;40.95;;;17.98;;
73585;SDS011;61865;50.232;18.614;2023-10-09T03:10:00;41.50;;;18.20;;
73585;SDS011;61865;50.232;18.614;2023-10-09T03:12:29;35.90;;;16.75;;
73585;SDS011;61865;50.232;18.614;2023-10-09T03:14:53;35.58;;;17.08;;
73585;SDS011;61865;50.232;18.614;2023-10-09T03:17:18;33.33;;;15.18;;
73585;SDS011;61865;50.232;18.614;2023-10-09T03:19:41;31.15;;;14.88;;
73585;SDS011;61865;50.232;18.614;2023-10-09T03:22:03;32.55;;;15.63;;
73585;SDS011;61865;50.232;18.614;2023-10-09T03:24:30;31.77;;;14.32;;
73585;SDS011;61865;50.232;18.614;2023-10-09T03:26:52;39.15;;;14.77;;
73585;SDS011;61865;50.232;18.614;2023-10-09T03:29:15;25.50;;;14.00;;
73585;SDS011;61865;50.232;18.614;2023-10-09T03:31:39;22.17;;;12.00;;
73585;SDS011;61865;50.232;18.614;2023-10-09T03:34:03;20.45;;;11.73;;
73585;SDS011;61865;50.232;18.614;2023-10-09T03:36:28;23.88;;;12.55;;
73585;SDS011;61865;50.232;18.614;2023-10-09T03:38:57;23.48;;;10.73;;
73585;SDS011;61865;50.232;18.614;2023-10-09T03:41:21;21.08;;;10.32;;
73585;SDS011;61865;50.232;18.614;2023-10-09T03:43:46;19.48;;;9.88;;
73585;SDS011;61865;50.232;18.614;2023-10-09T03:46:08;19.55;;;10.00;;
73585;SDS011;61865;50.232;18.614;2023-10-09T03:48:35;18.20;;;10.02;;
73585;SDS011;61865;50.232;18.614;2023-10-09T03:50:57;22.98;;;12.38;;
73585;SDS011;61865;50.232;18.614;2023-10-09T03:53:28;29.92;;;13.77;;
73585;SDS011;61865;50.232;18.614;2023-10-09T03:55:51;19.42;;;11.68;;
73585;SDS011;61865;50.232;18.614;2023-10-09T03:58:14;20.60;;;11.05;;
73585;SDS011;61865;50.232;18.614;2023-10-09T04:00:39;19.20;;;11.02;;
73585;SDS011;61865;50.232;18.614;2023-10-09T04:03:05;16.10;;;10.82;;
73585;SDS011;61865;50.232;18.614;2023-10-09T04:05:27;23.08;;;11.05;;
73585;SDS011;61865;50.232;18.614;2023-10-09T04:07:49;18.90;;;10.07;;
73585;SDS011;61865;50.232;18.614;2023-10-09T04:10:13;17.10;;;10.10;;
73585;SDS011;61865;50.232;18.614;2023-10-09T04:12:53;19.02;;;9.77;;
73585;SDS011;61865;50.232;18.614;2023-10-09T04:15:20;16.75;;;9.48;;
73585;SDS011;61865;50.232;18.614;2023-10-09T04:17:43;19.50;;;10.10;;
73585;SDS011;61865;50.232;18.614;2023-10-09T04:20:07;15.82;;;8.85;;
73585;SDS011;61865;50.232;18.614;2023-10-09T04:23:07;15.82;;;9.07;;
73585;SDS011;61865;50.232;18.614;2023-10-09T04:25:30;16.52;;;9.55;;
73585;SDS011;61865;50.232;18.614;2023-10-09T04:28:02;15.20;;;8.70;;
73585;SDS011;61865;50.232;18.614;2023-10-09T04:30:30;17.80;;;8.23;;
73585;SDS011;61865;50.232;18.614;2023-10-09T04:33:00;16.45;;;8.30;;
73585;SDS011;61865;50.232;18.614;2023-10-09T04:35:31;15.55;;;7.78;;
73585;SDS011;61865;50.232;18.614;2023-10-09T04:37:54;11.02;;;7.38;;
73585;SDS011;61865;50.232;18.614;2023-10-09T04:40:25;16.63;;;8.85;;
73585;SDS011;61865;50.232;18.614;2023-10-09T04:43:17;15.27;;;7.78;;
73585;SDS011;61865;50.232;18.614;2023-10-09T04:45:42;17.00;;;7.97;;
73585;SDS011;61865;50.232;18.614;2023-10-09T04:48:22;14.73;;;7.93;;
73585;SDS011;61865;50.232;18.614;2023-10-09T04:50:57;13.45;;;7.43;;
73585;SDS011;61865;50.232;18.614;2023-10-09T04:53:40;21.77;;;8.38;;
73585;SDS011;61865;50.232;18.614;2023-10-09T04:56:10;14.65;;;8.52;;
73585;SDS011;61865;50.232;18.614;2023-10-09T04:58:37;18.40;;;8.18;;
73585;SDS011;61865;50.232;18.614;2023-10-09T05:00:59;15.27;;;7.22;;
73585;SDS011;61865;50.232;18.614;2023-10-09T05:03:25;15.40;;;8.90;;
73585;SDS011;61865;50.232;18.614;2023-10-09T05:05:49;12.40;;;7.40;;
73585;SDS011;61865;50.232;18.614;2023-10-09T05:08:18;17.35;;;9.10;;
73585;SDS011;61865;50.232;18.614;2023-10-09T05:10:39;14.65;;;8.05;;
73585;SDS011;61865;50.232;18.614;2023-10-09T05:13:14;15.10;;;7.80;;
73585;SDS011;61865;50.232;18.614;2023-10-09T05:15:41;13.68;;;7.88;;
73585;SDS011;61865;50.232;18.614;2023-10-09T05:18:06;14.65;;;7.85;;
73585;SDS011;61865;50.232;18.614;2023-10-09T05:20:29;14.82;;;7.57;;
73585;SDS011;61865;50.232;18.614;2023-10-09T05:23:09;13.40;;;6.95;;
73585;SDS011;61865;50.232;18.614;2023-10-09T05:25:46;13.95;;;7.97;;
73585;SDS011;61865;50.232;18.614;2023-10-09T05:28:13;13.18;;;7.25;;
73585;SDS011;61865;50.232;18.614;2023-10-09T05:31:10;11.82;;;6.53;;
73585;SDS011;61865;50.232;18.614;2023-10-09T05:33:51;11.93;;;6.20;;
73585;SDS011;61865;50.232;18.614;2023-10-09T05:36:21;13.95;;;6.95;;
73585;SDS011;61865;50.232;18.614;2023-10-09T05:38:51;17.08;;;7.38;;
73585;SDS011;61865;50.232;18.614;2023-10-09T05:41:36;15.68;;;6.97;;
73585;SDS011;61865;50.232;18.614;2023-10-09T05:46:49;10.55;;;5.95;;
73585;SDS011;61865;50.232;18.614;2023-10-09T05:49:39;11.50;;;6.50;;
73585;SDS011;61865;50.232;18.614;2023-10-09T05:52:07;12.30;;;6.38;;
73585;SDS011;61865;50.232;18.614;2023-10-09T05:54:52;11.73;;;6.45;;
73585;SDS011;61865;50.232;18.614;2023-10-09T05:57:32;9.63;;;6.28;;
73585;SDS011;61865;50.232;18.614;2023-10-09T06:00:20;14.23;;;6.00;;
73585;SDS011;61865;50.232;18.614;2023-10-09T06:03:01;12.95;;;5.80;;
73585;SDS011;61865;50.232;18.614;2023-10-09T06:05:43;8.82;;;5.07;;
73585;SDS011;61865;50.232;18.614;2023-10-09T06:08:22;14.77;;;7.47;;
73585;SDS011;61865;50.232;18.614;2023-10-09T06:11:06;16.33;;;7.80;;
73585;SDS011;61865;50.232;18.614;2023-10-09T06:13:48;13.88;;;7.32;;
73585;SDS011;61865;50.232;18.614;2023-10-09T06:16:22;11.93;;;6.85;;
73585;SDS011;61865;50.232;18.614;2023-10-09T06:19:02;14.13;;;7.13;;
73585;SDS011;61865;50.232;18.614;2023-10-09T06:21:33;12.55;;;6.40;;
73585;SDS011;61865;50.232;18.614;2023-10-09T06:24:21;11.70;;;6.28;;
73585;SDS011;61865;50.232;18.614;2023-10-09T06:26:44;16.00;;;7.40;;
73585;SDS011;61865;50.232;18.614;2023-10-09T06:29:32;10.82;;;6.53;;
73585;SDS011;61865;50.232;18.614;2023-10-09T06:31:58;14.18;;;7.30;;
73585;SDS011;61865;50.232;18.614;2023-10-09T06:34:37;11.02;;;6.15;;
73585;SDS011;61865;50.232;18.614;2023-10-09T06:37:04;11.80;;;5.45;;
73585;SDS011;61865;50.232;18.614;2023-10-09T06:39:37;8.75;;;5.10;;
73585;SDS011;61865;50.232;18.614;2023-10-09T06:42:31;11.18;;;6.35;;
73585;SDS011;61865;50.232;18.614;2023-10-09T06:44:54;12.93;;;6.90;;
73585;SDS011;61865;50.232;18.614;2023-10-09T06:47:16;12.45;;;6.45;;
73585;SDS011;61865;50.232;18.614;2023-10-09T06:49:39;14.85;;;6.95;;
73585;SDS011;61865;50.232;18.614;2023-10-09T06:52:21;10.82;;;6.07;;
73585;SDS011;61865;50.232;18.614;2023-10-09T06:55:04;12.18;;;5.90;;
73585;SDS011;61865;50.232;18.614;2023-10-09T06:57:39;10.85;;;6.63;;
73585;SDS011;61865;50.232;18.614;2023-10-09T07:00:09;10.52;;;5.60;;
73585;SDS011;61865;50.232;18.614;2023-10-09T07:03:01;13.27;;;5.80;;
73585;SDS011;61865;50.232;18.614;2023-10-09T07:05:32;10.23;;;5.85;;
73585;SDS011;61865;50.232;18.614;2023-10-09T07:08:08;11.63;;;6.22;;
73585;SDS011;61865;50.232;18.614;2023-10-09T07:10:44;11.00;;;6.32;;
73585;SDS011;61865;50.232;18.614;2023-10-09T07:13:22;9.35;;;6.25;;
73585;SDS011;61865;50.232;18.614;2023-10-09T07:15:45;10.13;;;6.15;;
73585;SDS011;61865;50.232;18.614;2023-10-09T07:18:25;11.15;;;6.20;;
73585;SDS011;61865;50.232;18.614;2023-10-09T07:21:08;9.15;;;6.18;;
73585;SDS011;61865;50.232;18.614;2023-10-09T07:23:38;11.70;;;6.07;;
73585;SDS011;61865;50.232;18.614;2023-10-09T07:26:08;11.05;;;5.93;;
73585;SDS011;61865;50.232;18.614;2023-10-09T07:28:38;13.30;;;6.93;;
73585;SDS011;61865;50.232;18.614;2023-10-09T07:31:08;15.98;;;7.10;;
73585;SDS011;61865;50.232;18.614;2023-10-09T07:33:44;12.13;;;6.78;;
73585;SDS011;61865;50.232;18.614;2023-10-09T07:36:18;12.25;;;7.43;;
73585;SDS011;61865;50.232;18.614;2023-10-09T07:38:54;12.25;;;7.10;;
73585;SDS011;61865;50.232;18.614;2023-10-09T07:41:16;15.73;;;7.88;;
73585;SDS011;61865;50.232;18.614;2023-10-09T07:43:59;23.65;;;9.15;;
73585;SDS011;61865;50.232;18.614;2023-10-09T07:46:39;13.88;;;7.63;;
73585;SDS011;61865;50.232;18.614;2023-10-09T07:49:13;19.15;;;8.25;;
73585;SDS011;61865;50.232;18.614;2023-10-09T07:51:42;15.57;;;8.63;;
73585;SDS011;61865;50.232;18.614;2023-10-09T07:54:08;14.48;;;7.53;;
73585;SDS011;61865;50.232;18.614;2023-10-09T07:56:34;18.95;;;7.53;;
73585;SDS011;61865;50.232;18.614;2023-10-09T07:59:01;16.13;;;7.82;;
73585;SDS011;61865;50.232;18.614;2023-10-09T08:01:30;15.40;;;7.63;;
73585;SDS011;61865;50.232;18.614;2023-10-09T08:03:56;16.48;;;7.25;;
73585;SDS011;61865;50.232;18.614;2023-10-09T08:06:22;13.65;;;5.80;;
73585;SDS011;61865;50.232;18.614;2023-10-09T08:08:59;13.75;;;6.30;;
73585;SDS011;61865;50.232;18.614;2023-10-09T08:11:59;14.35;;;6.85;;
73585;SDS011;61865;50.232;18.614;2023-10-09T08:14:33;13.32;;;6.35;;
73585;SDS011;61865;50.232;18.614;2023-10-09T08:17:08;12.65;;;6.30;;
73585;SDS011;61865;50.232;18.614;2023-10-09T08:19:34;12.57;;;6.50;;
73585;SDS011;61865;50.232;18.614;2023-10-09T08:22:12;12.05;;;6.40;;
73585;SDS011;61865;50.232;18.614;2023-10-09T08:24:55;14.55;;;7.45;;
73585;SDS011;61865;50.232;18.614;2023-10-09T08:27:18;15.60;;;7.32;;
73585;SDS011;61865;50.232;18.614;2023-10-09T08:30:07;12.15;;;5.85;;
73585;SDS011;61865;50.232;18.614;2023-10-09T08:32:48;16.52;;;6.85;;
73585;SDS011;61865;50.232;18.614;2023-10-09T08:35:20;11.57;;;6.75;;
73585;SDS011;61865;50.232;18.614;2023-10-09T08:37:49;12.25;;;6.45;;
73585;SDS011;61865;50.232;18.614;2023-10-09T08:40:13;11.20;;;6.05;;
73585;SDS011;61865;50.232;18.614;2023-10-09T08:42:38;13.20;;;7.10;;
73585;SDS011;61865;50.232;18.614;2023-10-09T08:45:01;12.57;;;5.90;;
73585;SDS011;61865;50.232;18.614;2023-10-09T08:47:25;11.40;;;6.10;;
73585;SDS011;61865;50.232;18.614;2023-10-09T08:49:48;14.13;;;7.43;;
73585;SDS011;61865;50.232;18.614;2023-10-09T08:52:11;11.25;;;6.38;;
73585;SDS011;61865;50.232;18.614;2023-10-09T08:54:33;12.73;;;5.78;;
73585;SDS011;61865;50.232;18.614;2023-10-09T08:56:58;9.93;;;5.40;;
73585;SDS011;61865;50.232;18.614;2023-10-09T08:59:21;10.60;;;5.35;;
73585;SDS011;61865;50.232;18.614;2023-10-09T09:01:43;11.38;;;6.35;;
73585;SDS011;61865;50.232;18.614;2023-10-09T09:04:09;13.20;;;6.22;;
73585;SDS011;61865;50.232;18.614;2023-10-09T09:06:36;13.85;;;7.00;;
73585;SDS011;61865;50.232;18.614;2023-10-09T09:09:09;11.10;;;6.05;;
73585;SDS011;61865;50.232;18.614;2023-10-09T09:11:36;11.38;;;6.53;;
73585;SDS011;61865;50.232;18.614;2023-10-09T09:14:10;12.18;;;6.03;;
73585;SDS011;61865;50.232;18.614;2023-10-09T09:16:40;9.43;;;5.90;;
73585;SDS011;61865;50.232;18.614;2023-10-09T09:19:08;9.77;;;5.68;;
73585;SDS011;61865;50.232;18.614;2023-10-09T09:21:38;8.48;;;4.82;;
73585;SDS011;61865;50.232;18.614;2023-10-09T09:24:03;10.90;;;4.97;;
73585;SDS011;61865;50.232;18.614;2023-10-09T09:26:36;9.85;;;5.53;;
73585;SDS011;61865;50.232;18.614;2023-10-09T09:29:05;11.40;;;6.75;;
73585;SDS011;61865;50.232;18.614;2023-10-09T09:31:30;11.48;;;6.45;;
73585;SDS011;61865;50.232;18.614;2023-10-09T09:33:57;10.55;;;5.30;;
73585;SDS011;61865;50.232;18.614;2023-10-09T09:36:23;14.25;;;5.55;;
73585;SDS011;61865;50.232;18.614;2023-10-09T09:38:49;8.50;;;5.28;;
73585;SDS011;61865;50.232;18.614;2023-10-09T09:41:12;10.02;;;5.18;;
73585;SDS011;61865;50.232;18.614;2023-10-09T09:43:43;12.90;;;5.15;;
73585;SDS011;61865;50.232;18.614;2023-10-09T09:46:06;7.22;;;4.47;;
73585;SDS011;61865;50.232;18.614;2023-10-09T09:48:32;9.23;;;4.75;;
73585;SDS011;61865;50.232;18.614;2023-10-09T09:50:59;9.93;;;4.65;;
73585;SDS011;61865;50.232;18.614;2023-10-09T09:53:26;9.00;;;4.75;;
73585;SDS011;61865;50.232;18.614;2023-10-09T09:55:53;8.45;;;5.50;;
73585;SDS011;61865;50.232;18.614;2023-10-09T09:58:18;12.55;;;6.05;;
73585;SDS011;61865;50.232;18.614;2023-10-09T10:00:43;11.68;;;6.55;;
73585;SDS011;61865;50.232;18.614;2023-10-09T10:03:06;7.38;;;5.07;;
73585;SDS011;61865;50.232;18.614;2023-10-09T10:05:31;9.68;;;6.03;;
73585;SDS011;61865;50.232;18.614;2023-10-09T10:07:54;7.30;;;4.90;;
73585;SDS011;61865;50.232;18.614;2023-10-09T10:10:35;12.23;;;6.07;;
73585;SDS011;61865;50.232;18.614;2023-10-09T10:13:07;12.10;;;5.70;;
73585;SDS011;61865;50.232;18.614;2023-10-09T10:18:16;10.43;;;5.13;;
73585;SDS011;61865;50.232;18.614;2023-10-09T10:23:21;9.15;;;5.30;;
73585;SDS011;61865;50.232;18.614;2023-10-09T10:25:46;13.18;;;6.47;;
73585;SDS011;61865;50.232;18.614;2023-10-09T10:28:20;9.60;;;5.35;;
73585;SDS011;61865;50.232;18.614;2023-10-09T10:30:58;9.93;;;6.00;;
73585;SDS011;61865;50.232;18.614;2023-10-09T10:33:20;9.57;;;5.00;;
73585;SDS011;61865;50.232;18.614;2023-10-09T10:35:46;11.30;;;4.88;;
73585;SDS011;61865;50.232;18.614;2023-10-09T10:38:23;11.77;;;5.68;;
73585;SDS011;61865;50.232;18.614;2023-10-09T10:40:45;9.68;;;5.55;;
73585;SDS011;61865;50.232;18.614;2023-10-09T10:43:17;11.05;;;4.88;;
73585;SDS011;61865;50.232;18.614;2023-10-09T10:45:55;12.68;;;5.18;;
73585;SDS011;61865;50.232;18.614;2023-10-09T10:48:22;10.23;;;5.07;;
73585;SDS011;61865;50.232;18.614;2023-10-09T10:50:57;15.68;;;5.68;;
73585;SDS011;61865;50.232;18.614;2023-10-09T10:53:22;14.10;;;6.20;;
73585;SDS011;61865;50.232;18.614;2023-10-09T10:55:54;11.75;;;6.30;;
73585;SDS011;61865;50.232;18.614;2023-10-09T10:58:16;13.25;;;6.82;;
73585;SDS011;61865;50.232;18.614;2023-10-09T11:00:46;14.70;;;6.47;;
73585;SDS011;61865;50.232;18.614;2023-10-09T11:03:34;12.63;;;6.15;;
73585;SDS011;61865;50.232;18.614;2023-10-09T11:06:14;13.95;;;7.72;;
73585;SDS011;61865;50.232;18.614;2023-10-09T11:08:57;13.07;;;7.67;;
73585;SDS011;61865;50.232;18.614;2023-10-09T11:11:28;10.82;;;7.30;;
73585;SDS011;61865;50.232;18.614;2023-10-09T11:14:07;14.75;;;7.40;;
73585;SDS011;61865;50.232;18.614;2023-10-09T11:16:35;12.10;;;7.03;;
73585;SDS011;61865;50.232;18.614;2023-10-09T11:19:02;12.43;;;7.28;;
73585;SDS011;61865;50.232;18.614;2023-10-09T11:21:33;12.60;;;7.55;;
73585;SDS011;61865;50.232;18.614;2023-10-09T11:24:02;10.93;;;6.30;;
73585;SDS011;61865;50.232;18.614;2023-10-09T11:26:38;12.18;;;6.63;;
73585;SDS011;61865;50.232;18.614;2023-10-09T11:29:08;12.20;;;6.25;;
73585;SDS011;61865;50.232;18.614;2023-10-09T11:31:33;11.00;;;6.50;;
73585;SDS011;61865;50.232;18.614;2023-10-09T11:33:58;13.43;;;7.53;;
73585;SDS011;61865;50.232;18.614;2023-10-09T11:36:21;9.68;;;4.97;;
73585;SDS011;61865;50.232;18.614;2023-10-09T11:38:51;10.27;;;4.90;;
73585;SDS011;61865;50.232;18.614;2023-10-09T11:41:14;8.68;;;4.80;;
73585;SDS011;61865;50.232;18.614;2023-10-09T11:43:46;8.05;;;4.20;;
73585;SDS011;61865;50.232;18.614;2023-10-09T11:46:14;11.93;;;4.97;;
73585;SDS011;61865;50.232;18.614;2023-10-09T11:49:02;8.52;;;4.53;;
73585;SDS011;61865;50.232;18.614;2023-10-09T11:51:34;8.38;;;4.32;;
73585;SDS011;61865;50.232;18.614;2023-10-09T11:54:07;7.10;;;4.22;;
73585;SDS011;61865;50.232;18.614;2023-10-09T11:56:30;7.78;;;4.50;;
73585;SDS011;61865;50.232;18.614;2023-10-09T11:58:52;7.45;;;4.57;;
73585;SDS011;61865;50.232;18.614;2023-10-09T12:01:18;8.05;;;4.47;;
73585;SDS011;61865;50.232;18.614;2023-10-09T12:03:42;7.95;;;4.28;;
73585;SDS011;61865;50.232;18.614;2023-10-09T12:06:09;8.80;;;4.57;;
73585;SDS011;61865;50.232;18.614;2023-10-09T12:08:34;12.27;;;5.07;;
73585;SDS011;61865;50.232;18.614;2023-10-09T12:10:57;11.82;;;4.78;;
73585;SDS011;61865;50.232;18.614;2023-10-09T12:13:29;7.13;;;4.53;;
73585;SDS011;61865;50.232;18.614;2023-10-09T12:15:52;8.18;;;4.50;;
73585;SDS011;61865;50.232;18.614;2023-10-09T12:18:14;9.07;;;6.20;;
73585;SDS011;61865;50.232;18.614;2023-10-09T12:20:38;9.07;;;5.63;;
73585;SDS011;61865;50.232;18.614;2023-10-09T12:23:01;11.88;;;6.55;;
73585;SDS011;61865;50.232;18.614;2023-10-09T12:25:24;13.23;;;6.80;;
73585;SDS011;61865;50.232;18.614;2023-10-09T12:27:47;10.23;;;5.18;;
73585;SDS011;61865;50.232;18.614;2023-10-09T12:30:12;13.02;;;5.50;;
73585;SDS011;61865;50.232;18.614;2023-10-09T12:32:34;9.68;;;5.40;;
73585;SDS011;61865;50.232;18.614;2023-10-09T12:34:56;10.57;;;6.22;;
73585;SDS011;61865;50.232;18.614;2023-10-09T12:37:19;9.40;;;6.18;;
73585;SDS011;61865;50.232;18.614;2023-10-09T12:39:41;10.60;;;6.05;;
73585;SDS011;61865;50.232;18.614;2023-10-09T12:42:03;14.93;;;8.85;;
73585;SDS011;61865;50.232;18.614;2023-10-09T12:44:28;20.23;;;9.38;;
73585;SDS011;61865;50.232;18.614;2023-10-09T12:46:51;16.50;;;9.43;;
73585;SDS011;61865;50.232;18.614;2023-10-09T12:49:14;24.63;;;10.98;;
73585;SDS011;61865;50.232;18.614;2023-10-09T12:51:36;22.00;;;11.18;;
73585;SDS011;61865;50.232;18.614;2023-10-09T12:54:00;28.27;;;11.23;;
73585;SDS011;61865;50.232;18.614;2023-10-09T12:56:22;21.05;;;12.15;;
73585;SDS011;61865;50.232;18.614;2023-10-09T12:58:52;18.25;;;10.23;;
73585;SDS011;61865;50.232;18.614;2023-10-09T13:01:17;15.68;;;8.57;;
73585;SDS011;61865;50.232;18.614;2023-10-09T13:03:41;25.98;;;10.20;;
73585;SDS011;61865;50.232;18.614;2023-10-09T13:06:04;20.30;;;10.60;;
73585;SDS011;61865;50.232;18.614;2023-10-09T13:08:30;25.75;;;12.38;;
73585;SDS011;61865;50.232;18.614;2023-10-09T13:10:55;27.33;;;11.52;;
73585;SDS011;61865;50.232;18.614;2023-10-09T13:13:20;22.40;;;10.32;;
73585;SDS011;61865;50.232;18.614;2023-10-09T13:15:42;21.65;;;11.52;;
73585;SDS011;61865;50.232;18.614;2023-10-09T13:18:05;16.42;;;9.43;;
73585;SDS011;61865;50.232;18.614;2023-10-09T13:20:28;14.75;;;7.75;;
73585;SDS011;61865;50.232;18.614;2023-10-09T13:22:51;16.63;;;8.20;;
73585;SDS011;61865;50.232;18.614;2023-10-09T13:25:13;13.73;;;8.10;;
73585;SDS011;61865;50.232;18.614;2023-10-09T13:27:37;14.18;;;6.82;;
73585;SDS011;61865;50.232;18.614;2023-10-09T13:29:59;14.90;;;6.90;;
73585;SDS011;61865;50.232;18.614;2023-10-09T13:32:26;11.57;;;6.55;;
73585;SDS011;61865;50.232;18.614;2023-10-09T13:34:51;21.00;;;8.70;;
73585;SDS011;61865;50.232;18.614;2023-10-09T13:37:17;16.27;;;8.07;;
73585;SDS011;61865;50.232;18.614;2023-10-09T13:39:42;13.52;;;8.20;;
73585;SDS011;61865;50.232;18.614;2023-10-09T13:44:36;15.38;;;7.93;;
73585;SDS011;61865;50.232;18.614;2023-10-09T13:47:02;14.15;;;7.90;;
73585;SDS011;61865;50.232;18.614;2023-10-09T13:49:25;17.02;;;10.38;;
73585;SDS011;61865;50.232;18.614;2023-10-09T13:51:50;16.95;;;8.93;;
73585;SDS011;61865;50.232;18.614;2023-10-09T13:54:18;17.08;;;9.73;;
73585;SDS011;61865;50.232;18.614;2023-10-09T13:56:48;15.50;;;9.43;;
73585;SDS011;61865;50.232;18.614;2023-10-09T13:59:13;17.95;;;10.07;;
73585;SDS011;61865;50.232;18.614;2023-10-09T14:01:37;25.05;;;10.63;;
73585;SDS011;61865;50.232;18.614;2023-10-09T14:04:00;19.13;;;10.10;;
73585;SDS011;61865;50.232;18.614;2023-10-09T14:06:26;16.83;;;10.20;;
73585;SDS011;61865;50.232;18.614;2023-10-09T14:08:52;17.35;;;10.55;;
73585;SDS011;61865;50.232;18.614;2023-10-09T14:11:17;17.15;;;10.75;;
73585;SDS011;61865;50.232;18.614;2023-10-09T14:13:39;17.65;;;10.88;;
73585;SDS011;61865;50.232;18.614;2023-10-09T14:16:01;19.35;;;10.13;;
73585;SDS011;61865;50.232;18.614;2023-10-09T14:18:24;16.50;;;11.25;;
73585;SDS011;61865;50.232;18.614;2023-10-09T14:20:50;19.42;;;10.93;;
73585;SDS011;61865;50.232;18.614;2023-10-09T14:23:16;20.75;;;11.60;;
73585;SDS011;61865;50.232;18.614;2023-10-09T14:25:40;14.27;;;8.90;;
73585;SDS011;61865;50.232;18.614;2023-10-09T14:28:06;15.15;;;9.90;;
73585;SDS011;61865;50.232;18.614;2023-10-09T14:30:29;16.63;;;10.02;;
73585;SDS011;61865;50.232;18.614;2023-10-09T14:32:54;18.98;;;10.07;;
73585;SDS011;61865;50.232;18.614;2023-10-09T14:35:16;13.80;;;9.38;;
73585;SDS011;61865;50.232;18.614;2023-10-09T14:37:41;17.70;;;10.70;;